createdAt,value
2023-01-05T00:00:04.276Z,2.62
2023-01-05T00:02:30.710Z,2.03
2023-01-05T00:04:57.109Z,1.83
2023-01-05T00:07:23.508Z,1.17
2023-01-05T00:09:49.833Z,1.40
2023-01-05T00:12:35.016Z,2.45
2023-01-05T00:15:20.232Z,2.15
2023-01-05T00:18:05.116Z,1.92
2023-01-05T00:20:50.379Z,2.17
2023-01-05T00:23:16.684Z,2.78
2023-01-05T00:25:42.985Z,1.52
2023-01-05T00:28:09.285Z,2.47
2023-01-05T00:30:35.591Z,2.80
2023-01-05T00:33:01.914Z,2.45
2023-01-05T00:35:28.233Z,1.42
2023-01-05T00:37:54.531Z,5.32
2023-01-05T00:40:20.920Z,3.60
2023-01-05T00:42:47.594Z,1.87
2023-01-05T00:45:13.907Z,1.50
2023-01-05T00:47:40.233Z,3.42
2023-01-05T00:50:06.583Z,2.50
2023-01-05T00:52:32.897Z,3.25
2023-01-05T00:54:59.235Z,3.08
2023-01-05T00:57:25.621Z,2.60
2023-01-05T00:59:51.942Z,3.42
2023-01-05T01:02:18.425Z,3.65
2023-01-05T01:04:44.905Z,2.50
2023-01-05T01:07:11.236Z,3.22
2023-01-05T01:09:37.616Z,3.35
2023-01-05T01:12:03.935Z,2.30
2023-01-05T01:14:30.244Z,3.55
2023-01-05T01:16:56.657Z,4.28
2023-01-05T01:19:22.983Z,2.65
2023-01-05T01:21:49.301Z,3.97
2023-01-05T01:24:15.603Z,2.25
2023-01-05T01:26:41.902Z,1.30
2023-01-05T01:29:08.217Z,1.65
2023-01-05T01:31:35.660Z,2.45
2023-01-05T01:34:01.977Z,2.47
2023-01-05T01:36:28.294Z,3.85
2023-01-05T01:38:54.610Z,3.47
2023-01-05T01:41:20.938Z,2.35
2023-01-05T01:43:47.270Z,2.50
2023-01-05T01:46:13.679Z,3.33
2023-01-05T01:48:40.083Z,4.45
2023-01-05T01:51:08.319Z,1.62
2023-01-05T01:53:34.849Z,4.62
2023-01-05T01:56:01.173Z,5.97
2023-01-05T01:58:27.555Z,4.78
2023-01-05T02:00:53.915Z,4.22
2023-01-05T02:03:20.284Z,6.97
2023-01-05T02:05:46.579Z,6.18
2023-01-05T02:08:13.376Z,5.90
2023-01-05T02:10:40.323Z,5.37
2023-01-05T02:13:06.628Z,6.93
2023-01-05T02:15:32.930Z,3.87
2023-01-05T02:17:59.255Z,4.87
2023-01-05T02:20:25.838Z,4.90
2023-01-05T02:22:52.168Z,5.18
2023-01-05T02:25:18.518Z,4.35
2023-01-05T02:27:44.816Z,5.18
2023-01-05T02:30:11.130Z,3.90
2023-01-05T02:32:37.450Z,3.33
2023-01-05T02:35:03.763Z,4.22
2023-01-05T02:37:30.073Z,5.97
2023-01-05T02:39:56.409Z,4.97
2023-01-05T02:42:22.731Z,7.15
2023-01-05T02:44:49.107Z,5.28
2023-01-05T02:47:15.449Z,5.32
2023-01-05T02:49:41.765Z,4.47
2023-01-05T02:52:08.096Z,7.22
2023-01-05T02:54:34.632Z,6.72
2023-01-05T02:57:00.931Z,7.57
2023-01-05T02:59:27.227Z,5.62
2023-01-05T03:01:53.622Z,5.50
2023-01-05T03:04:19.997Z,6.32
2023-01-05T03:06:49.308Z,5.22
2023-01-05T03:09:15.922Z,7.80
2023-01-05T03:12:01.080Z,8.55
2023-01-05T03:14:27.426Z,5.43
2023-01-05T03:16:53.764Z,6.07
2023-01-05T03:19:39.118Z,8.45
2023-01-05T03:22:24.121Z,8.45
2023-01-05T03:25:09.097Z,7.18
2023-01-05T03:27:54.038Z,5.95
2023-01-05T03:30:39.082Z,5.95
2023-01-05T03:33:24.201Z,4.65
2023-01-05T03:35:50.602Z,9.43
2023-01-05T03:38:18.564Z,3.50
2023-01-05T03:40:45.770Z,9.63
2023-01-05T03:43:12.110Z,5.75
2023-01-05T03:45:38.432Z,8.18
2023-01-05T03:48:04.774Z,7.05
2023-01-05T03:50:31.119Z,7.35
2023-01-05T03:52:57.474Z,9.10
2023-01-05T03:55:23.820Z,4.87
2023-01-05T03:57:50.176Z,6.03
2023-01-05T04:00:16.512Z,9.23
2023-01-05T04:02:43.178Z,8.00
2023-01-05T04:05:09.801Z,6.75
2023-01-05T04:07:36.176Z,7.75
2023-01-05T04:10:02.494Z,11.65
2023-01-05T04:12:28.850Z,5.93
2023-01-05T04:14:55.168Z,4.15
2023-01-05T04:17:21.497Z,6.37
2023-01-05T04:19:47.848Z,8.18
2023-01-05T04:22:14.179Z,7.40
2023-01-05T04:24:40.482Z,6.80
2023-01-05T04:27:06.792Z,6.07
2023-01-05T04:29:33.094Z,5.35
2023-01-05T04:31:59.458Z,7.75
2023-01-05T04:34:25.783Z,5.97
2023-01-05T04:36:52.177Z,6.68
2023-01-05T04:39:18.504Z,7.35
2023-01-05T04:41:44.842Z,4.50
2023-01-05T04:44:11.148Z,5.95
2023-01-05T04:46:37.502Z,7.68
2023-01-05T04:49:03.836Z,7.30
2023-01-05T04:51:30.185Z,7.28
2023-01-05T04:53:56.502Z,5.57
2023-01-05T04:56:22.812Z,7.78
2023-01-05T04:58:49.135Z,6.05
2023-01-05T05:01:15.646Z,5.78
2023-01-05T05:03:42.116Z,5.75
2023-01-05T05:06:08.492Z,8.13
2023-01-05T05:08:34.835Z,9.43
2023-01-05T05:11:01.169Z,4.68
2023-01-05T05:13:27.598Z,7.72
2023-01-05T05:15:54.014Z,9.48
2023-01-05T05:18:22.226Z,7.43
2023-01-05T05:20:49.056Z,9.45
2023-01-05T05:23:15.404Z,7.68
2023-01-05T05:25:41.786Z,7.47
2023-01-05T05:28:08.128Z,7.07
2023-01-05T05:30:34.434Z,7.18
2023-01-05T05:33:00.779Z,9.02
2023-01-05T05:35:27.181Z,7.93
2023-01-05T05:37:56.574Z,6.55
2023-01-05T05:40:23.301Z,6.62
2023-01-05T05:42:49.617Z,6.15
2023-01-05T05:45:15.942Z,9.15
2023-01-05T05:47:42.265Z,9.15
2023-01-05T05:50:08.598Z,6.80
2023-01-05T05:52:34.927Z,4.97
2023-01-05T05:55:01.833Z,7.65
2023-01-05T05:57:28.217Z,11.88
2023-01-05T05:59:54.553Z,8.23
2023-01-05T06:02:20.966Z,6.62
2023-01-05T06:04:47.339Z,6.00
2023-01-05T06:07:13.695Z,5.82
2023-01-05T06:09:40.031Z,7.10
2023-01-05T06:12:06.365Z,6.82
2023-01-05T06:14:32.913Z,4.28
2023-01-05T06:16:59.326Z,5.85
2023-01-05T06:19:25.620Z,8.13
2023-01-05T06:21:51.977Z,10.55
2023-01-05T06:24:18.294Z,6.47
2023-01-05T06:26:45.728Z,9.25
2023-01-05T06:29:12.261Z,11.10
2023-01-05T06:31:38.736Z,5.95
2023-01-05T06:34:05.153Z,7.20
2023-01-05T06:36:31.526Z,5.85
2023-01-05T06:38:57.927Z,6.75
2023-01-05T06:41:24.316Z,6.12
2023-01-05T06:43:50.685Z,5.15
2023-01-05T06:46:17.068Z,6.53
2023-01-05T06:48:43.413Z,9.07
2023-01-05T06:51:09.747Z,7.18
2023-01-05T06:53:36.092Z,8.82
2023-01-05T06:56:02.432Z,7.70
2023-01-05T06:58:28.761Z,9.30
2023-01-05T07:00:55.213Z,7.65
2023-01-05T07:03:23.974Z,5.85
2023-01-05T07:05:50.330Z,8.38
2023-01-05T07:08:16.637Z,6.20
2023-01-05T07:10:42.956Z,5.43
2023-01-05T07:13:09.344Z,7.43
2023-01-05T07:15:35.672Z,5.43
2023-01-05T07:18:02.005Z,5.97
2023-01-05T07:20:28.391Z,8.77
2023-01-05T07:22:54.723Z,6.15
2023-01-05T07:25:21.025Z,6.28
2023-01-05T07:27:47.345Z,7.40
2023-01-05T07:30:13.666Z,8.73
2023-01-05T07:32:39.967Z,8.68
2023-01-05T07:35:06.346Z,9.80
2023-01-05T07:37:32.689Z,7.65
2023-01-05T07:39:59.007Z,4.72
2023-01-05T07:42:26.219Z,6.40
2023-01-05T07:44:52.595Z,9.75
2023-01-05T07:47:18.945Z,7.30
2023-01-05T07:49:45.845Z,7.12
2023-01-05T07:52:12.190Z,5.40
2023-01-05T07:54:38.513Z,5.25
2023-01-05T07:57:04.839Z,8.00
2023-01-05T07:59:31.250Z,7.00
2023-01-05T08:01:58.624Z,6.82
2023-01-05T08:04:25.126Z,5.47
2023-01-05T08:06:52.638Z,8.68
2023-01-05T08:09:37.671Z,4.40
2023-01-05T08:12:04.018Z,4.85
2023-01-05T08:14:30.337Z,6.10
2023-01-05T08:16:56.703Z,7.20
2023-01-05T08:19:23.080Z,6.72
2023-01-05T08:21:49.411Z,7.80
2023-01-05T08:24:15.709Z,6.40
2023-01-05T08:26:42.072Z,4.93
2023-01-05T08:29:08.393Z,7.05
2023-01-05T08:31:37.727Z,6.90
2023-01-05T08:34:04.334Z,6.62
2023-01-05T08:36:33.858Z,5.37
2023-01-05T08:39:01.716Z,10.40
2023-01-05T08:41:28.629Z,7.22
2023-01-05T08:43:54.964Z,5.30
2023-01-05T08:46:21.352Z,7.40
2023-01-05T08:48:47.687Z,5.07
2023-01-05T08:51:13.988Z,9.23
2023-01-05T08:53:40.330Z,8.00
2023-01-05T08:56:06.676Z,5.53
2023-01-05T08:58:33.023Z,7.50
2023-01-05T09:00:59.475Z,4.72
2023-01-05T09:03:25.972Z,6.70
2023-01-05T09:05:52.376Z,7.68
2023-01-05T09:08:18.696Z,5.95
2023-01-05T09:10:45.049Z,6.35
2023-01-05T09:13:12.115Z,6.53
2023-01-05T09:15:38.488Z,7.53
2023-01-05T09:18:04.919Z,6.60
2023-01-05T09:20:37.743Z,5.55
2023-01-05T09:23:06.015Z,6.97
2023-01-05T09:25:32.325Z,7.87
2023-01-05T09:27:58.731Z,7.37
2023-01-05T09:30:25.054Z,5.82
2023-01-05T09:32:51.371Z,9.27
2023-01-05T09:35:17.765Z,9.30
2023-01-05T09:37:44.138Z,8.35
2023-01-05T09:40:10.461Z,6.68
2023-01-05T09:42:36.889Z,6.32
2023-01-05T09:45:03.353Z,6.05
2023-01-05T09:47:29.661Z,6.93
2023-01-05T09:49:56.010Z,6.30
2023-01-05T09:52:22.373Z,7.37
2023-01-05T09:54:48.717Z,5.80
2023-01-05T09:57:15.072Z,4.28
2023-01-05T09:59:41.447Z,7.40
2023-01-05T10:02:07.818Z,4.70
2023-01-05T10:04:34.255Z,3.97
2023-01-05T10:07:00.639Z,5.50
2023-01-05T10:09:26.946Z,9.60
2023-01-05T10:12:12.249Z,5.05
2023-01-05T10:14:38.580Z,5.07
2023-01-05T10:17:39.182Z,6.20
2023-01-05T10:19:51.301Z,4.03
2023-01-05T10:22:17.725Z,6.45
2023-01-05T10:24:44.077Z,4.90
2023-01-05T10:27:26.827Z,6.45
2023-01-05T10:29:53.354Z,4.60
2023-01-05T10:32:19.658Z,3.22
2023-01-05T10:34:45.955Z,3.72
2023-01-05T10:37:12.260Z,4.20
2023-01-05T10:39:38.611Z,3.37
2023-01-05T10:42:04.935Z,5.32
2023-01-05T10:44:31.385Z,3.95
2023-01-05T10:46:57.776Z,4.95
2023-01-05T10:49:24.127Z,4.03
2023-01-05T10:51:56.343Z,4.45
2023-01-05T10:54:23.252Z,4.18
2023-01-05T10:56:49.573Z,4.85
2023-01-05T10:59:16.011Z,6.57
2023-01-05T11:01:42.438Z,3.80
2023-01-05T11:06:55.280Z,3.95
2023-01-05T11:09:22.517Z,4.35
2023-01-05T11:11:49.104Z,8.15
2023-01-05T11:14:15.439Z,4.87
2023-01-05T11:16:41.768Z,4.87
2023-01-05T11:19:08.109Z,3.40
2023-01-05T11:21:34.429Z,7.78
2023-01-05T11:24:00.767Z,6.43
2023-01-05T11:26:27.178Z,4.72
2023-01-05T11:28:53.502Z,3.47
2023-01-05T11:31:19.927Z,5.80
2023-01-05T11:33:46.269Z,3.12
2023-01-05T11:36:12.592Z,6.47
2023-01-05T11:38:38.990Z,4.53
2023-01-05T11:41:05.449Z,2.95
2023-01-05T11:43:31.760Z,3.65
2023-01-05T11:45:58.188Z,4.95
2023-01-05T11:48:24.603Z,4.03
2023-01-05T11:50:51.005Z,4.68
2023-01-05T11:53:17.364Z,4.95
2023-01-05T11:55:43.732Z,4.07
2023-01-05T11:58:10.071Z,5.40
2023-01-05T12:00:36.433Z,3.70
2023-01-05T12:03:03.203Z,5.70
2023-01-05T12:05:30.616Z,4.72
2023-01-05T12:07:56.921Z,2.72
2023-01-05T12:10:23.249Z,5.15
2023-01-05T12:12:49.640Z,4.03
2023-01-05T12:15:16.052Z,5.93
2023-01-05T12:17:42.370Z,6.22
2023-01-05T12:20:08.721Z,3.40
2023-01-05T12:22:35.053Z,5.25
2023-01-05T12:25:04.985Z,4.25
2023-01-05T12:27:31.307Z,5.00
2023-01-05T12:35:30.209Z,4.35
2023-01-05T12:37:56.548Z,4.82
2023-01-05T12:40:22.858Z,5.37
2023-01-05T12:42:49.170Z,4.12
2023-01-05T12:45:15.494Z,2.97
2023-01-05T12:47:41.838Z,3.55
2023-01-05T12:50:08.153Z,2.45
2023-01-05T12:52:34.502Z,3.03
2023-01-05T12:55:00.860Z,4.65
2023-01-05T12:57:27.208Z,3.15
2023-01-05T12:59:53.526Z,2.33
2023-01-05T13:02:21.226Z,2.58
2023-01-05T13:04:50.453Z,2.87
2023-01-05T13:07:20.717Z,4.82
2023-01-05T13:09:47.020Z,2.65
2023-01-05T13:12:13.696Z,4.62
2023-01-05T13:14:41.982Z,2.47
2023-01-05T13:17:08.324Z,4.28
2023-01-05T13:19:34.672Z,4.03
2023-01-05T13:22:00.994Z,5.60
2023-01-05T13:24:28.346Z,4.65
2023-01-05T13:26:54.684Z,3.33
2023-01-05T13:29:20.990Z,3.92
2023-01-05T13:31:47.372Z,4.47
2023-01-05T13:34:13.685Z,4.53
2023-01-05T13:36:40.056Z,3.87
2023-01-05T13:39:06.503Z,4.68
2023-01-05T13:41:32.817Z,6.82
2023-01-05T13:43:59.139Z,5.25
2023-01-05T13:46:26.926Z,4.50
2023-01-05T13:49:03.292Z,8.45
2023-01-05T13:51:34.019Z,3.87
2023-01-05T13:54:00.353Z,4.35
2023-01-05T13:56:26.658Z,3.55
2023-01-05T13:58:53.022Z,5.35
2023-01-05T14:01:19.622Z,3.28
2023-01-05T14:03:45.996Z,4.45
2023-01-05T14:06:12.327Z,5.53
2023-01-05T14:08:38.644Z,4.70
2023-01-05T14:11:05.034Z,5.07
2023-01-05T14:13:31.376Z,3.92
2023-01-05T14:15:57.729Z,4.62
2023-01-05T14:18:24.043Z,6.05
2023-01-05T14:20:51.407Z,5.87
2023-01-05T14:23:17.748Z,7.10
2023-01-05T14:25:44.141Z,5.03
2023-01-05T14:28:10.443Z,7.75
2023-01-05T14:30:36.763Z,6.93
2023-01-05T14:33:03.085Z,8.13
2023-01-05T14:35:29.785Z,7.62
2023-01-05T14:37:56.226Z,8.93
2023-01-05T14:40:22.621Z,7.32
2023-01-05T14:42:49.022Z,4.90
2023-01-05T14:45:15.334Z,4.75
2023-01-05T14:47:41.737Z,3.12
2023-01-05T14:50:08.124Z,4.07
2023-01-05T14:52:34.424Z,3.28
2023-01-05T14:55:07.072Z,4.70
2023-01-05T14:57:45.645Z,3.45
2023-01-05T15:00:11.969Z,4.15
2023-01-05T15:02:38.305Z,3.15
2023-01-05T15:05:05.165Z,2.70
2023-01-05T15:07:31.473Z,1.90
2023-01-05T15:09:57.935Z,1.85
2023-01-05T15:12:27.940Z,2.30
2023-01-05T15:14:54.271Z,3.53
2023-01-05T15:17:20.570Z,3.20
2023-01-05T15:19:46.859Z,2.75
2023-01-05T15:22:36.232Z,2.20
2023-01-05T15:24:59.461Z,3.60
2023-01-05T15:27:25.950Z,4.28
2023-01-05T15:29:52.349Z,2.47
2023-01-05T15:32:18.689Z,1.80
2023-01-05T15:34:45.010Z,1.70
2023-01-05T15:37:11.336Z,2.15
2023-01-05T15:39:37.719Z,2.00
2023-01-05T15:42:04.065Z,2.58
2023-01-05T15:44:30.655Z,2.00
2023-01-05T15:46:56.996Z,1.60
2023-01-05T15:49:23.325Z,2.12
2023-01-05T15:51:49.810Z,1.80
2023-01-05T15:54:16.124Z,1.58
2023-01-05T15:56:42.450Z,1.08
2023-01-05T15:59:08.759Z,1.30
2023-01-05T16:01:35.121Z,1.12
2023-01-05T16:04:01.449Z,2.17
2023-01-05T16:06:30.918Z,1.20
2023-01-05T16:08:57.233Z,1.83
2023-01-05T16:11:23.570Z,2.35
2023-01-05T16:13:49.907Z,2.87
2023-01-05T16:16:43.392Z,1.67
2023-01-05T16:19:02.615Z,2.53
2023-01-05T16:21:28.936Z,1.48
2023-01-05T16:23:55.272Z,1.40
2023-01-05T16:26:21.581Z,1.87
2023-01-05T16:28:48.033Z,2.92
2023-01-05T16:31:14.366Z,1.62
2023-01-05T16:33:40.745Z,1.70
2023-01-05T16:36:07.088Z,1.52
2023-01-05T16:38:33.396Z,3.08
2023-01-05T16:40:59.709Z,1.30
2023-01-05T16:43:26.024Z,2.05
2023-01-05T16:45:52.383Z,3.62
2023-01-05T16:48:18.693Z,1.83
2023-01-05T16:50:45.009Z,3.10
2023-01-05T16:53:11.327Z,1.85
2023-01-05T16:55:37.667Z,2.15
2023-01-05T16:58:03.984Z,1.42
2023-01-05T17:00:30.353Z,1.40
2023-01-05T17:02:56.750Z,2.10
2023-01-05T17:05:23.124Z,2.30
2023-01-05T17:07:49.485Z,1.98
2023-01-05T17:12:46.941Z,1.65
2023-01-05T17:15:13.342Z,1.20
2023-01-05T17:17:39.669Z,1.70
2023-01-05T17:20:06.465Z,1.37
2023-01-05T17:22:32.782Z,1.05
2023-01-05T17:27:25.430Z,1.77
2023-01-05T17:29:53.208Z,1.58
2023-01-05T17:32:19.722Z,1.45
2023-01-05T17:34:46.076Z,1.30
2023-01-05T17:37:12.680Z,1.30
2023-01-05T17:39:39.026Z,2.03
2023-01-05T17:42:24.238Z,2.45
2023-01-05T17:44:51.998Z,1.77
2023-01-05T17:47:18.482Z,2.12
2023-01-05T17:49:44.814Z,3.85
2023-01-05T17:52:12.660Z,2.03
2023-01-05T17:54:41.876Z,2.90
2023-01-05T17:59:34.532Z,2.00
2023-01-05T18:02:00.919Z,3.62
2023-01-05T18:04:28.674Z,2.33
2023-01-05T18:06:55.217Z,4.53
2023-01-05T18:11:48.799Z,2.70
2023-01-05T18:14:16.457Z,3.35
2023-01-05T18:16:46.465Z,2.62
2023-01-05T18:21:39.428Z,2.05
2023-01-05T18:24:05.754Z,2.70
2023-01-05T18:26:32.148Z,1.75
2023-01-05T18:28:58.443Z,1.40
2023-01-05T18:31:25.938Z,1.83
2023-01-05T18:33:52.250Z,5.07
2023-01-05T18:36:18.572Z,2.28
2023-01-05T18:38:44.986Z,1.80
2023-01-05T18:41:11.305Z,2.03
2023-01-05T18:43:37.640Z,1.90
2023-01-05T18:46:04.041Z,3.50
2023-01-05T18:48:30.435Z,1.77
2023-01-05T18:50:56.769Z,2.53
2023-01-05T18:53:23.123Z,2.65
2023-01-05T18:55:49.458Z,2.55
2023-01-05T18:58:15.780Z,3.87
2023-01-05T19:00:42.123Z,3.53
2023-01-05T19:03:08.453Z,3.67
2023-01-05T19:05:34.758Z,4.35
2023-01-05T19:08:01.078Z,2.75
2023-01-05T19:10:27.444Z,2.05
2023-01-05T19:12:53.778Z,4.12
2023-01-05T19:15:20.108Z,2.00
2023-01-05T19:17:46.427Z,2.05
2023-01-05T19:20:12.775Z,2.55
2023-01-05T19:22:40.101Z,2.05
2023-01-05T19:25:07.163Z,2.50
2023-01-05T19:27:33.652Z,4.40
2023-01-05T19:29:59.962Z,1.48
2023-01-05T19:32:26.334Z,2.53
2023-01-05T19:34:52.654Z,2.65
2023-01-05T19:37:18.988Z,1.62
2023-01-05T19:39:45.299Z,2.22
2023-01-05T19:42:11.642Z,2.47
2023-01-05T19:44:37.949Z,1.62
2023-01-05T19:47:04.364Z,1.60
2023-01-05T19:49:30.797Z,4.50
2023-01-05T19:51:57.158Z,3.67
2023-01-05T19:54:25.375Z,3.75
2023-01-05T19:56:52.044Z,2.72
2023-01-05T19:59:18.382Z,1.75
2023-01-05T20:01:44.775Z,3.10
2023-01-05T20:04:11.187Z,3.62
2023-01-05T20:06:37.695Z,1.98
2023-01-05T20:09:05.005Z,1.87
2023-01-05T20:11:40.907Z,1.52
2023-01-05T20:14:08.670Z,2.97
2023-01-05T20:16:36.103Z,4.43
2023-01-05T20:19:02.465Z,2.70
2023-01-05T20:21:28.855Z,3.08
2023-01-05T20:23:55.205Z,1.87
2023-01-05T20:26:21.569Z,1.65
2023-01-05T20:28:47.967Z,3.87
2023-01-05T20:31:14.310Z,3.60
2023-01-05T20:33:40.641Z,2.50
2023-01-05T20:36:06.951Z,3.40
2023-01-05T20:38:33.832Z,3.97
2023-01-05T20:41:00.137Z,2.15
2023-01-05T20:43:26.577Z,2.92
2023-01-05T20:45:52.899Z,1.50
2023-01-05T20:48:19.240Z,2.45
2023-01-05T20:50:46.418Z,1.92
2023-01-05T20:53:12.741Z,3.33
2023-01-05T20:55:40.086Z,1.60
2023-01-05T20:58:06.417Z,1.90
2023-01-05T21:00:32.963Z,1.77
2023-01-05T21:02:59.360Z,2.37
2023-01-05T21:05:25.689Z,2.62
2023-01-05T21:07:51.989Z,3.08
2023-01-05T21:10:18.399Z,2.95
2023-01-05T21:12:44.736Z,3.85
2023-01-05T21:15:11.062Z,2.37
2023-01-05T21:17:37.470Z,2.20
2023-01-05T21:20:03.924Z,2.47
2023-01-05T21:22:30.231Z,3.37
2023-01-05T21:24:56.571Z,4.25
2023-01-05T21:27:22.891Z,2.97
2023-01-05T21:29:49.214Z,1.33
2023-01-05T21:32:15.533Z,3.17
2023-01-05T21:34:41.855Z,1.87
2023-01-05T21:37:08.193Z,2.03
2023-01-05T21:39:34.608Z,1.92
2023-01-05T21:42:19.775Z,2.50
2023-01-05T21:44:46.102Z,1.62
2023-01-05T21:47:13.017Z,3.30
2023-01-05T21:49:39.370Z,3.60
2023-01-05T21:52:24.630Z,3.33
2023-01-05T21:55:09.819Z,3.05
2023-01-05T21:57:36.291Z,2.08
2023-01-05T22:00:02.663Z,2.25
2023-01-05T22:02:29.807Z,4.97
2023-01-05T22:04:56.110Z,3.75
2023-01-05T22:07:22.474Z,2.35
2023-01-05T22:09:48.808Z,3.55
2023-01-05T22:12:15.146Z,3.45
2023-01-05T22:14:41.527Z,4.10
2023-01-05T22:17:07.878Z,3.12
2023-01-05T22:19:34.190Z,5.65
2023-01-05T22:22:00.510Z,4.40
2023-01-05T22:24:26.856Z,1.95
2023-01-05T22:26:53.151Z,3.53
2023-01-05T22:29:19.477Z,4.07
2023-01-05T22:31:45.999Z,3.78
2023-01-05T22:34:12.357Z,2.90
2023-01-05T22:36:39.067Z,4.50
2023-01-05T22:39:05.418Z,3.28
2023-01-05T22:41:31.894Z,2.30
2023-01-05T22:43:58.246Z,3.50
2023-01-05T22:46:24.664Z,3.35
2023-01-05T22:48:51.055Z,4.22
2023-01-05T22:51:17.378Z,3.35
2023-01-05T22:53:43.806Z,3.28
2023-01-05T22:56:10.143Z,3.67
2023-01-05T22:58:36.451Z,4.97
2023-01-05T23:01:02.767Z,3.10
2023-01-05T23:03:29.106Z,2.05
2023-01-05T23:05:55.412Z,4.32
2023-01-05T23:08:21.734Z,2.85
2023-01-05T23:10:48.058Z,2.72
2023-01-05T23:13:14.410Z,4.60
2023-01-05T23:15:40.873Z,3.15
2023-01-05T23:18:07.202Z,3.70
2023-01-05T23:20:33.537Z,1.95
2023-01-05T23:22:59.862Z,3.10
2023-01-05T23:25:26.173Z,2.87
2023-01-05T23:27:53.073Z,4.35
2023-01-05T23:30:19.415Z,3.15
2023-01-05T23:32:45.749Z,1.98
2023-01-05T23:35:12.220Z,4.55
2023-01-05T23:37:38.602Z,1.95
2023-01-05T23:40:04.965Z,4.15
2023-01-05T23:42:43.560Z,5.28
2023-01-05T23:45:09.914Z,2.15
2023-01-05T23:47:36.223Z,3.08
2023-01-05T23:50:02.540Z,4.00
2023-01-05T23:52:28.852Z,6.05
2023-01-05T23:54:55.367Z,5.30
2023-01-05T23:57:21.886Z,2.12
2023-01-05T23:59:48.207Z,6.03
